sensor_id;sensor_type;location;lat;lon;timestamp;pressure;altitude;pressure_sealevel;temperature;humidity
59110;BME280;44895;47.438;18.978;2023-01-26T00:00:57;100880.28;;;1.29;100.00
59110;BME280;44895;47.438;18.978;2023-01-26T00:04:02;100876.16;;;1.72;100.00
59110;BME280;44895;47.438;18.978;2023-01-26T00:07:06;100868.41;;;1.57;100.00
59110;BME280;44895;47.438;18.978;2023-01-26T00:10:10;100871.50;;;1.54;100.00
59110;BME280;44895;47.438;18.978;2023-01-26T00:13:17;100867.44;;;1.77;100.00
59110;BME280;44895;47.438;18.978;2023-01-26T00:16:22;100866.19;;;1.79;100.00
59110;BME280;44895;47.438;18.978;2023-01-26T00:19:26;100863.53;;;1.79;100.00
59110;BME280;44895;47.438;18.978;2023-01-26T00:22:30;100867.47;;;2.02;100.00
59110;BME280;44895;47.438;18.978;2023-01-26T00:25:36;100865.13;;;1.87;100.00
59110;BME280;44895;47.438;18.978;2023-01-26T00:28:42;100859.34;;;1.58;100.00
59110;BME280;44895;47.438;18.978;2023-01-26T00:31:46;100857.94;;;1.81;100.00
59110;BME280;44895;47.438;18.978;2023-01-26T00:34:51;100859.13;;;1.92;100.00
59110;BME280;44895;47.438;18.978;2023-01-26T00:37:54;100857.13;;;1.81;100.00
59110;BME280;44895;47.438;18.978;2023-01-26T00:40:58;100863.97;;;1.76;100.00
59110;BME280;44895;47.438;18.978;2023-01-26T00:44:02;100862.25;;;1.82;100.00
59110;BME280;44895;47.438;18.978;2023-01-26T00:47:07;100860.19;;;1.84;100.00
59110;BME280;44895;47.438;18.978;2023-01-26T00:50:11;100859.41;;;1.77;100.00
59110;BME280;44895;47.438;18.978;2023-01-26T00:53:15;100847.38;;;1.61;100.00
59110;BME280;44895;47.438;18.978;2023-01-26T00:56:19;100846.19;;;1.82;100.00
59110;BME280;44895;47.438;18.978;2023-01-26T00:59:24;100848.41;;;1.92;100.00
59110;BME280;44895;47.438;18.978;2023-01-26T01:02:28;100840.13;;;1.93;100.00
59110;BME280;44895;47.438;18.978;2023-01-26T01:05:33;100846.84;;;1.77;100.00
59110;BME280;44895;47.438;18.978;2023-01-26T01:08:37;100846.34;;;1.94;100.00
59110;BME280;44895;47.438;18.978;2023-01-26T01:11:40;100840.84;;;1.82;100.00
59110;BME280;44895;47.438;18.978;2023-01-26T01:14:46;100839.97;;;1.88;100.00
59110;BME280;44895;47.438;18.978;2023-01-26T01:17:51;100836.03;;;1.91;100.00
59110;BME280;44895;47.438;18.978;2023-01-26T01:20:55;100835.00;;;1.92;100.00
59110;BME280;44895;47.438;18.978;2023-01-26T01:23:59;100837.75;;;1.85;100.00
59110;BME280;44895;47.438;18.978;2023-01-26T01:27:03;100830.63;;;1.72;100.00
59110;BME280;44895;47.438;18.978;2023-01-26T01:30:08;100824.72;;;1.89;100.00
59110;BME280;44895;47.438;18.978;2023-01-26T01:33:12;100815.03;;;1.88;100.00
59110;BME280;44895;47.438;18.978;2023-01-26T01:36:16;100824.19;;;1.80;100.00
59110;BME280;44895;47.438;18.978;2023-01-26T01:39:20;100823.72;;;1.83;100.00
59110;BME280;44895;47.438;18.978;2023-01-26T01:42:24;100824.41;;;1.72;100.00
59110;BME280;44895;47.438;18.978;2023-01-26T01:45:42;100822.94;;;1.76;100.00
59110;BME280;44895;47.438;18.978;2023-01-26T01:48:55;100813.66;;;1.46;100.00
59110;BME280;44895;47.438;18.978;2023-01-26T01:55:16;100819.28;;;1.70;100.00
59110;BME280;44895;47.438;18.978;2023-01-26T01:58:20;100807.44;;;1.85;100.00
59110;BME280;44895;47.438;18.978;2023-01-26T02:01:24;100801.97;;;1.73;100.00
59110;BME280;44895;47.438;18.978;2023-01-26T02:04:28;100808.25;;;1.53;100.00
59110;BME280;44895;47.438;18.978;2023-01-26T02:07:32;100793.88;;;1.79;100.00
59110;BME280;44895;47.438;18.978;2023-01-26T02:10:36;100790.63;;;1.71;100.00
59110;BME280;44895;47.438;18.978;2023-01-26T02:13:42;100792.13;;;1.67;100.00
59110;BME280;44895;47.438;18.978;2023-01-26T02:16:47;100790.25;;;1.67;100.00
59110;BME280;44895;47.438;18.978;2023-01-26T02:26:26;100780.16;;;1.69;100.00
59110;BME280;44895;47.438;18.978;2023-01-26T02:29:30;100773.97;;;1.69;100.00
59110;BME280;44895;47.438;18.978;2023-01-26T02:32:34;100773.13;;;1.75;100.00
59110;BME280;44895;47.438;18.978;2023-01-26T02:35:38;100766.28;;;1.79;100.00
59110;BME280;44895;47.438;18.978;2023-01-26T02:38:48;100755.34;;;1.81;100.00
59110;BME280;44895;47.438;18.978;2023-01-26T02:41:54;100743.66;;;1.75;100.00
59110;BME280;44895;47.438;18.978;2023-01-26T02:45:17;100745.25;;;1.76;100.00
59110;BME280;44895;47.438;18.978;2023-01-26T02:48:21;100736.34;;;1.82;100.00
59110;BME280;44895;47.438;18.978;2023-01-26T02:51:55;100734.34;;;1.77;100.00
59110;BME280;44895;47.438;18.978;2023-01-26T02:54:59;100730.69;;;1.72;100.00
59110;BME280;44895;47.438;18.978;2023-01-26T02:58:21;100729.66;;;1.73;100.00
59110;BME280;44895;47.438;18.978;2023-01-26T03:01:25;100717.28;;;1.72;100.00
59110;BME280;44895;47.438;18.978;2023-01-26T03:04:29;100714.53;;;1.78;100.00
59110;BME280;44895;47.438;18.978;2023-01-26T03:07:32;100720.81;;;1.72;100.00
59110;BME280;44895;47.438;18.978;2023-01-26T03:10:36;100717.06;;;1.73;100.00
59110;BME280;44895;47.438;18.978;2023-01-26T03:13:40;100716.19;;;1.79;100.00
59110;BME280;44895;47.438;18.978;2023-01-26T03:16:44;100712.38;;;1.69;100.00
59110;BME280;44895;47.438;18.978;2023-01-26T03:19:48;100705.94;;;1.76;100.00
59110;BME280;44895;47.438;18.978;2023-01-26T03:23:12;100713.66;;;1.85;100.00
59110;BME280;44895;47.438;18.978;2023-01-26T03:26:34;100710.19;;;1.84;100.00
59110;BME280;44895;47.438;18.978;2023-01-26T03:29:57;100691.50;;;1.77;100.00
59110;BME280;44895;47.438;18.978;2023-01-26T03:33:01;100691.16;;;1.67;100.00
59110;BME280;44895;47.438;18.978;2023-01-26T03:36:05;100688.84;;;1.96;100.00
59110;BME280;44895;47.438;18.978;2023-01-26T03:39:08;100684.00;;;1.86;100.00
59110;BME280;44895;47.438;18.978;2023-01-26T03:42:12;100682.78;;;1.82;100.00
59110;BME280;44895;47.438;18.978;2023-01-26T03:45:34;100682.66;;;1.95;100.00
59110;BME280;44895;47.438;18.978;2023-01-26T03:48:59;100685.34;;;1.95;100.00
59110;BME280;44895;47.438;18.978;2023-01-26T03:52:22;100675.28;;;1.72;100.00
59110;BME280;44895;47.438;18.978;2023-01-26T03:55:45;100675.59;;;1.83;100.00
59110;BME280;44895;47.438;18.978;2023-01-26T03:59:07;100664.78;;;1.89;100.00
59110;BME280;44895;47.438;18.978;2023-01-26T04:02:12;100670.88;;;1.78;100.00
59110;BME280;44895;47.438;18.978;2023-01-26T04:05:35;100667.00;;;1.74;100.00
59110;BME280;44895;47.438;18.978;2023-01-26T04:08:58;100661.13;;;1.65;100.00
59110;BME280;44895;47.438;18.978;2023-01-26T04:12:02;100663.44;;;1.80;100.00
59110;BME280;44895;47.438;18.978;2023-01-26T04:15:07;100662.91;;;1.71;100.00
59110;BME280;44895;47.438;18.978;2023-01-26T04:18:29;100658.66;;;1.82;100.00
59110;BME280;44895;47.438;18.978;2023-01-26T04:21:51;100654.50;;;1.68;100.00
59110;BME280;44895;47.438;18.978;2023-01-26T04:24:56;100654.34;;;1.81;100.00
59110;BME280;44895;47.438;18.978;2023-01-26T04:28:00;100652.41;;;1.70;100.00
59110;BME280;44895;47.438;18.978;2023-01-26T04:31:04;100651.66;;;1.62;100.00
59110;BME280;44895;47.438;18.978;2023-01-26T04:34:12;100647.13;;;1.63;100.00
59110;BME280;44895;47.438;18.978;2023-01-26T04:37:17;100639.69;;;1.65;100.00
59110;BME280;44895;47.438;18.978;2023-01-26T04:40:23;100646.16;;;1.57;100.00
59110;BME280;44895;47.438;18.978;2023-01-26T04:43:27;100644.25;;;1.83;100.00
59110;BME280;44895;47.438;18.978;2023-01-26T04:46:31;100636.81;;;1.85;100.00
59110;BME280;44895;47.438;18.978;2023-01-26T04:49:36;100644.38;;;1.70;100.00
59110;BME280;44895;47.438;18.978;2023-01-26T04:52:40;100638.84;;;1.65;100.00
59110;BME280;44895;47.438;18.978;2023-01-26T04:55:44;100639.31;;;1.61;100.00
59110;BME280;44895;47.438;18.978;2023-01-26T04:58:48;100629.06;;;1.77;100.00
59110;BME280;44895;47.438;18.978;2023-01-26T05:01:53;100640.56;;;1.59;100.00
59110;BME280;44895;47.438;18.978;2023-01-26T05:04:56;100636.66;;;1.80;100.00
59110;BME280;44895;47.438;18.978;2023-01-26T05:08:02;100638.34;;;1.74;100.00
59110;BME280;44895;47.438;18.978;2023-01-26T05:11:08;100633.22;;;1.73;100.00
59110;BME280;44895;47.438;18.978;2023-01-26T05:14:41;100638.06;;;1.39;100.00
59110;BME280;44895;47.438;18.978;2023-01-26T05:18:06;100628.59;;;1.61;100.00
59110;BME280;44895;47.438;18.978;2023-01-26T05:21:16;100630.50;;;1.54;100.00
59110;BME280;44895;47.438;18.978;2023-01-26T05:24:24;100635.75;;;1.68;100.00
59110;BME280;44895;47.438;18.978;2023-01-26T05:27:36;100628.53;;;1.68;100.00
59110;BME280;44895;47.438;18.978;2023-01-26T05:30:39;100632.22;;;1.67;100.00
59110;BME280;44895;47.438;18.978;2023-01-26T05:33:43;100650.34;;;1.72;100.00
59110;BME280;44895;47.438;18.978;2023-01-26T05:36:50;100635.75;;;1.68;100.00
59110;BME280;44895;47.438;18.978;2023-01-26T05:39:54;100631.72;;;1.58;100.00
59110;BME280;44895;47.438;18.978;2023-01-26T05:42:58;100641.69;;;1.70;100.00
59110;BME280;44895;47.438;18.978;2023-01-26T05:46:28;100646.13;;;1.83;100.00
59110;BME280;44895;47.438;18.978;2023-01-26T05:49:31;100648.53;;;1.40;100.00
59110;BME280;44895;47.438;18.978;2023-01-26T05:52:35;100645.44;;;1.69;100.00
59110;BME280;44895;47.438;18.978;2023-01-26T05:55:39;100653.09;;;1.65;100.00
59110;BME280;44895;47.438;18.978;2023-01-26T05:58:42;100650.63;;;1.38;100.00
59110;BME280;44895;47.438;18.978;2023-01-26T06:01:46;100652.22;;;1.46;100.00
59110;BME280;44895;47.438;18.978;2023-01-26T06:04:50;100654.88;;;1.21;100.00
59110;BME280;44895;47.438;18.978;2023-01-26T06:07:54;100650.72;;;1.50;100.00
59110;BME280;44895;47.438;18.978;2023-01-26T06:11:03;100647.09;;;1.12;100.00
59110;BME280;44895;47.438;18.978;2023-01-26T06:14:26;100636.31;;;1.26;100.00
59110;BME280;44895;47.438;18.978;2023-01-26T06:17:29;100642.47;;;1.26;100.00
59110;BME280;44895;47.438;18.978;2023-01-26T06:20:36;100650.25;;;1.35;100.00
59110;BME280;44895;47.438;18.978;2023-01-26T06:23:42;100644.44;;;1.63;100.00
59110;BME280;44895;47.438;18.978;2023-01-26T06:26:47;100647.78;;;1.58;100.00
59110;BME280;44895;47.438;18.978;2023-01-26T06:29:53;100644.00;;;1.66;100.00
59110;BME280;44895;47.438;18.978;2023-01-26T06:32:56;100641.84;;;1.31;100.00
59110;BME280;44895;47.438;18.978;2023-01-26T06:36:05;100638.34;;;1.30;100.00
59110;BME280;44895;47.438;18.978;2023-01-26T06:39:11;100637.31;;;1.75;100.00
59110;BME280;44895;47.438;18.978;2023-01-26T06:42:15;100634.56;;;1.82;100.00
59110;BME280;44895;47.438;18.978;2023-01-26T06:45:20;100636.81;;;1.85;100.00
59110;BME280;44895;47.438;18.978;2023-01-26T06:48:26;100630.78;;;1.90;100.00
59110;BME280;44895;47.438;18.978;2023-01-26T06:54:49;100623.72;;;1.95;100.00
59110;BME280;44895;47.438;18.978;2023-01-26T06:58:12;100629.84;;;2.03;100.00
59110;BME280;44895;47.438;18.978;2023-01-26T07:01:37;100629.66;;;1.98;100.00
59110;BME280;44895;47.438;18.978;2023-01-26T07:04:42;100631.09;;;2.00;100.00
59110;BME280;44895;47.438;18.978;2023-01-26T07:07:46;100636.25;;;1.33;100.00
59110;BME280;44895;47.438;18.978;2023-01-26T07:10:49;100624.50;;;1.59;100.00
59110;BME280;44895;47.438;18.978;2023-01-26T07:13:53;100622.53;;;1.91;100.00
59110;BME280;44895;47.438;18.978;2023-01-26T07:16:57;100620.13;;;1.83;100.00
59110;BME280;44895;47.438;18.978;2023-01-26T07:20:01;100626.78;;;1.55;100.00
59110;BME280;44895;47.438;18.978;2023-01-26T07:23:05;100620.03;;;1.27;100.00
59110;BME280;44895;47.438;18.978;2023-01-26T07:26:08;100613.50;;;1.86;100.00
59110;BME280;44895;47.438;18.978;2023-01-26T07:29:12;100620.59;;;1.36;100.00
59110;BME280;44895;47.438;18.978;2023-01-26T07:32:16;100613.13;;;1.82;100.00
59110;BME280;44895;47.438;18.978;2023-01-26T07:35:19;100609.66;;;1.38;100.00
59110;BME280;44895;47.438;18.978;2023-01-26T07:38:24;100602.78;;;1.67;100.00
59110;BME280;44895;47.438;18.978;2023-01-26T07:41:28;100603.19;;;1.89;100.00
59110;BME280;44895;47.438;18.978;2023-01-26T07:44:34;100597.34;;;1.55;100.00
59110;BME280;44895;47.438;18.978;2023-01-26T07:47:37;100598.91;;;1.63;100.00
59110;BME280;44895;47.438;18.978;2023-01-26T07:50:41;100595.97;;;1.71;100.00
59110;BME280;44895;47.438;18.978;2023-01-26T07:53:46;100606.97;;;1.82;100.00
59110;BME280;44895;47.438;18.978;2023-01-26T07:56:53;100607.84;;;1.75;100.00
59110;BME280;44895;47.438;18.978;2023-01-26T07:59:57;100607.97;;;1.62;100.00
59110;BME280;44895;47.438;18.978;2023-01-26T08:03:00;100608.69;;;1.32;100.00
59110;BME280;44895;47.438;18.978;2023-01-26T08:06:04;100616.53;;;1.71;100.00
59110;BME280;44895;47.438;18.978;2023-01-26T08:09:09;100609.22;;;1.41;100.00
59110;BME280;44895;47.438;18.978;2023-01-26T08:12:13;100604.50;;;1.61;100.00
59110;BME280;44895;47.438;18.978;2023-01-26T08:15:17;100609.41;;;1.65;100.00
59110;BME280;44895;47.438;18.978;2023-01-26T08:18:21;100610.63;;;1.69;100.00
59110;BME280;44895;47.438;18.978;2023-01-26T08:21:25;100602.97;;;1.72;100.00
59110;BME280;44895;47.438;18.978;2023-01-26T08:24:30;100602.19;;;1.21;100.00
59110;BME280;44895;47.438;18.978;2023-01-26T08:27:33;100605.06;;;1.45;100.00
59110;BME280;44895;47.438;18.978;2023-01-26T08:30:37;100606.94;;;1.63;100.00
59110;BME280;44895;47.438;18.978;2023-01-26T08:33:42;100609.00;;;1.86;100.00
59110;BME280;44895;47.438;18.978;2023-01-26T08:36:45;100602.63;;;1.62;100.00
59110;BME280;44895;47.438;18.978;2023-01-26T08:39:49;100607.19;;;1.99;100.00
59110;BME280;44895;47.438;18.978;2023-01-26T08:42:53;100594.91;;;2.09;100.00
59110;BME280;44895;47.438;18.978;2023-01-26T08:45:57;100604.88;;;1.84;100.00
59110;BME280;44895;47.438;18.978;2023-01-26T08:49:01;100595.31;;;1.51;100.00
59110;BME280;44895;47.438;18.978;2023-01-26T08:52:05;100599.00;;;1.93;100.00
59110;BME280;44895;47.438;18.978;2023-01-26T08:55:09;100594.53;;;1.87;100.00
59110;BME280;44895;47.438;18.978;2023-01-26T08:58:13;100598.56;;;1.78;100.00
59110;BME280;44895;47.438;18.978;2023-01-26T09:01:17;100602.19;;;1.84;100.00
59110;BME280;44895;47.438;18.978;2023-01-26T09:04:20;100595.66;;;2.17;100.00
59110;BME280;44895;47.438;18.978;2023-01-26T09:07:24;100594.97;;;2.21;100.00
59110;BME280;44895;47.438;18.978;2023-01-26T09:10:29;100595.50;;;2.11;100.00
59110;BME280;44895;47.438;18.978;2023-01-26T09:13:32;100605.31;;;1.81;100.00
59110;BME280;44895;47.438;18.978;2023-01-26T09:16:36;100604.06;;;2.02;100.00
59110;BME280;44895;47.438;18.978;2023-01-26T09:19:40;100604.22;;;2.07;100.00
59110;BME280;44895;47.438;18.978;2023-01-26T09:22:44;100599.56;;;2.33;100.00
59110;BME280;44895;47.438;18.978;2023-01-26T09:25:52;100598.78;;;1.95;100.00
59110;BME280;44895;47.438;18.978;2023-01-26T09:28:56;100594.69;;;2.11;100.00
59110;BME280;44895;47.438;18.978;2023-01-26T09:32:00;100604.22;;;2.07;100.00
59110;BME280;44895;47.438;18.978;2023-01-26T09:35:04;100592.00;;;2.11;100.00
59110;BME280;44895;47.438;18.978;2023-01-26T09:38:08;100594.34;;;2.38;100.00
59110;BME280;44895;47.438;18.978;2023-01-26T09:44:23;100589.03;;;1.82;100.00
59110;BME280;44895;47.438;18.978;2023-01-26T09:51:10;100579.53;;;2.66;100.00
59110;BME280;44895;47.438;18.978;2023-01-26T09:57:46;100566.88;;;2.54;100.00
59110;BME280;44895;47.438;18.978;2023-01-26T10:00:56;100564.44;;;2.22;100.00
59110;BME280;44895;47.438;18.978;2023-01-26T10:04:14;100556.41;;;2.04;100.00
59110;BME280;44895;47.438;18.978;2023-01-26T10:07:22;100553.81;;;2.16;100.00
59110;BME280;44895;47.438;18.978;2023-01-26T10:10:33;100543.00;;;2.53;100.00
59110;BME280;44895;47.438;18.978;2023-01-26T10:13:47;100547.25;;;2.72;100.00
59110;BME280;44895;47.438;18.978;2023-01-26T10:16:53;100536.53;;;2.72;100.00
59110;BME280;44895;47.438;18.978;2023-01-26T10:23:21;100526.59;;;2.73;100.00
59110;BME280;44895;47.438;18.978;2023-01-26T10:26:30;100523.19;;;2.54;100.00
59110;BME280;44895;47.438;18.978;2023-01-26T10:29:33;100522.78;;;2.08;100.00
59110;BME280;44895;47.438;18.978;2023-01-26T10:32:40;100518.19;;;2.57;100.00
59110;BME280;44895;47.438;18.978;2023-01-26T10:35:44;100509.69;;;2.30;100.00
59110;BME280;44895;47.438;18.978;2023-01-26T10:38:50;100512.38;;;2.00;100.00
59110;BME280;44895;47.438;18.978;2023-01-26T10:42:01;100511.56;;;1.81;100.00
59110;BME280;44895;47.438;18.978;2023-01-26T10:45:24;100512.72;;;2.22;100.00
59110;BME280;44895;47.438;18.978;2023-01-26T10:48:27;100505.44;;;2.10;100.00
59110;BME280;44895;47.438;18.978;2023-01-26T10:51:33;100500.56;;;1.89;100.00
59110;BME280;44895;47.438;18.978;2023-01-26T10:54:37;100500.25;;;2.27;100.00
59110;BME280;44895;47.438;18.978;2023-01-26T10:57:42;100495.00;;;2.33;100.00
59110;BME280;44895;47.438;18.978;2023-01-26T11:00:54;100492.31;;;2.75;100.00
59110;BME280;44895;47.438;18.978;2023-01-26T11:04:11;100486.25;;;2.80;100.00
59110;BME280;44895;47.438;18.978;2023-01-26T11:07:28;100490.22;;;2.77;100.00
59110;BME280;44895;47.438;18.978;2023-01-26T11:10:36;100485.63;;;2.54;100.00
59110;BME280;44895;47.438;18.978;2023-01-26T11:13:40;100479.09;;;2.07;100.00
59110;BME280;44895;47.438;18.978;2023-01-26T11:24:02;100469.38;;;2.37;100.00
59110;BME280;44895;47.438;18.978;2023-01-26T11:27:29;100461.31;;;1.94;100.00
59110;BME280;44895;47.438;18.978;2023-01-26T11:41:30;100456.03;;;2.84;100.00
59110;BME280;44895;47.438;18.978;2023-01-26T11:45:13;100451.50;;;2.97;100.00
59110;BME280;44895;47.438;18.978;2023-01-26T12:01:33;100407.84;;;3.01;100.00
59110;BME280;44895;47.438;18.978;2023-01-26T12:04:40;100406.66;;;3.09;100.00
59110;BME280;44895;47.438;18.978;2023-01-26T12:07:53;100401.44;;;2.90;100.00
59110;BME280;44895;47.438;18.978;2023-01-26T12:11:05;100401.78;;;2.82;100.00
59110;BME280;44895;47.438;18.978;2023-01-26T12:21:19;100395.63;;;2.58;100.00
59110;BME280;44895;47.438;18.978;2023-01-26T12:24:34;100395.03;;;2.80;100.00
59110;BME280;44895;47.438;18.978;2023-01-26T12:27:48;100383.34;;;2.26;100.00
59110;BME280;44895;47.438;18.978;2023-01-26T12:31:06;100389.78;;;2.49;100.00
59110;BME280;44895;47.438;18.978;2023-01-26T12:34:15;100389.19;;;2.94;100.00
59110;BME280;44895;47.438;18.978;2023-01-26T12:37:44;100381.06;;;2.77;100.00
59110;BME280;44895;47.438;18.978;2023-01-26T12:53:56;100380.59;;;2.69;100.00
59110;BME280;44895;47.438;18.978;2023-01-26T12:57:03;100372.88;;;2.60;100.00
59110;BME280;44895;47.438;18.978;2023-01-26T13:00:21;100362.59;;;2.81;100.00
59110;BME280;44895;47.438;18.978;2023-01-26T13:03:32;100369.16;;;2.85;100.00
59110;BME280;44895;47.438;18.978;2023-01-26T13:06:37;100365.75;;;2.90;100.00
59110;BME280;44895;47.438;18.978;2023-01-26T13:22:51;100356.22;;;2.58;100.00
59110;BME280;44895;47.438;18.978;2023-01-26T13:35:32;100352.22;;;2.85;100.00
59110;BME280;44895;47.438;18.978;2023-01-26T13:38:41;100358.16;;;2.87;100.00
59110;BME280;44895;47.438;18.978;2023-01-26T13:41:46;100357.78;;;2.95;100.00
59110;BME280;44895;47.438;18.978;2023-01-26T13:44:56;100359.19;;;2.98;100.00
59110;BME280;44895;47.438;18.978;2023-01-26T13:48:04;100355.72;;;2.73;100.00
59110;BME280;44895;47.438;18.978;2023-01-26T13:51:33;100359.56;;;2.42;100.00
59110;BME280;44895;47.438;18.978;2023-01-26T13:54:40;100362.13;;;2.37;100.00
59110;BME280;44895;47.438;18.978;2023-01-26T13:57:44;100345.72;;;2.57;100.00
59110;BME280;44895;47.438;18.978;2023-01-26T14:01:04;100351.88;;;2.45;100.00
59110;BME280;44895;47.438;18.978;2023-01-26T14:04:16;100329.16;;;2.48;100.00
59110;BME280;44895;47.438;18.978;2023-01-26T14:07:30;100348.63;;;2.67;100.00
59110;BME280;44895;47.438;18.978;2023-01-26T14:10:41;100347.53;;;2.09;100.00
59110;BME280;44895;47.438;18.978;2023-01-26T14:13:49;100350.50;;;2.19;100.00
59110;BME280;44895;47.438;18.978;2023-01-26T14:16:56;100347.34;;;2.22;100.00
59110;BME280;44895;47.438;18.978;2023-01-26T14:20:06;100348.16;;;2.47;100.00
59110;BME280;44895;47.438;18.978;2023-01-26T14:23:19;100356.66;;;2.32;100.00
59110;BME280;44895;47.438;18.978;2023-01-26T14:26:28;100360.38;;;2.19;100.00
59110;BME280;44895;47.438;18.978;2023-01-26T14:29:37;100361.44;;;2.30;100.00
59110;BME280;44895;47.438;18.978;2023-01-26T14:32:41;100357.19;;;1.98;100.00
59110;BME280;44895;47.438;18.978;2023-01-26T14:35:56;100356.41;;;2.21;100.00
59110;BME280;44895;47.438;18.978;2023-01-26T14:39:00;100355.84;;;2.43;100.00
59110;BME280;44895;47.438;18.978;2023-01-26T14:42:04;100356.09;;;2.30;100.00
59110;BME280;44895;47.438;18.978;2023-01-26T14:45:12;100348.72;;;2.37;100.00
59110;BME280;44895;47.438;18.978;2023-01-26T14:48:19;100348.94;;;2.11;100.00
59110;BME280;44895;47.438;18.978;2023-01-26T14:51:25;100350.00;;;2.22;100.00
59110;BME280;44895;47.438;18.978;2023-01-26T14:54:34;100337.78;;;2.26;100.00
59110;BME280;44895;47.438;18.978;2023-01-26T14:57:41;100342.91;;;2.40;100.00
59110;BME280;44895;47.438;18.978;2023-01-26T15:00:48;100337.66;;;2.09;100.00
59110;BME280;44895;47.438;18.978;2023-01-26T15:04:04;100340.16;;;1.92;100.00
59110;BME280;44895;47.438;18.978;2023-01-26T15:10:45;100340.81;;;2.18;100.00
59110;BME280;44895;47.438;18.978;2023-01-26T15:13:55;100351.41;;;2.13;100.00
59110;BME280;44895;47.438;18.978;2023-01-26T15:16:59;100356.56;;;1.72;100.00
59110;BME280;44895;47.438;18.978;2023-01-26T15:23:23;100349.44;;;2.32;100.00
59110;BME280;44895;47.438;18.978;2023-01-26T15:26:33;100350.59;;;2.24;100.00
59110;BME280;44895;47.438;18.978;2023-01-26T15:29:37;100347.94;;;2.24;100.00
59110;BME280;44895;47.438;18.978;2023-01-26T15:32:41;100356.97;;;2.00;100.00
59110;BME280;44895;47.438;18.978;2023-01-26T15:35:56;100354.63;;;1.91;100.00
59110;BME280;44895;47.438;18.978;2023-01-26T15:39:15;100346.63;;;2.03;100.00
59110;BME280;44895;47.438;18.978;2023-01-26T15:42:24;100349.53;;;2.02;100.00
59110;BME280;44895;47.438;18.978;2023-01-26T15:45:30;100341.38;;;2.20;100.00
59110;BME280;44895;47.438;18.978;2023-01-26T15:48:38;100348.25;;;2.04;100.00
59110;BME280;44895;47.438;18.978;2023-01-26T15:51:42;100353.97;;;2.08;100.00
59110;BME280;44895;47.438;18.978;2023-01-26T15:54:46;100348.94;;;2.11;100.00
59110;BME280;44895;47.438;18.978;2023-01-26T15:57:50;100356.22;;;2.35;100.00
59110;BME280;44895;47.438;18.978;2023-01-26T16:00:57;100353.59;;;2.04;100.00
59110;BME280;44895;47.438;18.978;2023-01-26T16:04:00;100347.28;;;1.87;100.00
59110;BME280;44895;47.438;18.978;2023-01-26T16:07:10;100353.69;;;1.98;100.00
59110;BME280;44895;47.438;18.978;2023-01-26T16:10:15;100358.38;;;2.02;100.00
59110;BME280;44895;47.438;18.978;2023-01-26T16:13:20;100351.41;;;2.13;100.00
59110;BME280;44895;47.438;18.978;2023-01-26T16:16:23;100353.47;;;1.99;100.00
59110;BME280;44895;47.438;18.978;2023-01-26T16:19:29;100349.06;;;2.05;100.00
59110;BME280;44895;47.438;18.978;2023-01-26T16:22:33;100353.44;;;1.87;100.00
59110;BME280;44895;47.438;18.978;2023-01-26T16:25:37;100351.34;;;1.89;100.00
59110;BME280;44895;47.438;18.978;2023-01-26T16:28:42;100359.81;;;1.74;100.00
59110;BME280;44895;47.438;18.978;2023-01-26T16:31:46;100350.25;;;1.67;100.00
59110;BME280;44895;47.438;18.978;2023-01-26T16:34:50;100350.63;;;1.82;100.00
59110;BME280;44895;47.438;18.978;2023-01-26T16:37:54;100348.06;;;1.87;100.00
59110;BME280;44895;47.438;18.978;2023-01-26T16:40:58;100348.88;;;1.76;100.00
59110;BME280;44895;47.438;18.978;2023-01-26T16:44:02;100348.88;;;1.76;100.00
59110;BME280;44895;47.438;18.978;2023-01-26T16:47:08;100334.91;;;1.74;100.00
59110;BME280;44895;47.438;18.978;2023-01-26T16:50:13;100338.19;;;1.88;100.00
59110;BME280;44895;47.438;18.978;2023-01-26T16:53:22;100344.66;;;1.68;100.00
59110;BME280;44895;47.438;18.978;2023-01-26T16:56:28;100344.97;;;1.29;100.00
59110;BME280;44895;47.438;18.978;2023-01-26T16:59:32;100340.69;;;1.71;100.00
59110;BME280;44895;47.438;18.978;2023-01-26T17:02:35;100340.06;;;1.57;100.00
59110;BME280;44895;47.438;18.978;2023-01-26T17:05:39;100338.88;;;1.83;100.00
59110;BME280;44895;47.438;18.978;2023-01-26T17:08:43;100330.25;;;1.81;100.00
59110;BME280;44895;47.438;18.978;2023-01-26T17:11:48;100328.94;;;1.72;100.00
59110;BME280;44895;47.438;18.978;2023-01-26T17:14:51;100323.69;;;1.65;100.00
59110;BME280;44895;47.438;18.978;2023-01-26T17:17:56;100327.69;;;1.44;100.00
59110;BME280;44895;47.438;18.978;2023-01-26T17:21:02;100331.09;;;1.51;100.00
59110;BME280;44895;47.438;18.978;2023-01-26T17:24:06;100331.28;;;1.38;100.00
59110;BME280;44895;47.438;18.978;2023-01-26T17:27:10;100336.69;;;1.50;100.00
59110;BME280;44895;47.438;18.978;2023-01-26T17:30:16;100329.59;;;1.55;100.00
59110;BME280;44895;47.438;18.978;2023-01-26T17:33:20;100329.78;;;1.72;100.00
59110;BME280;44895;47.438;18.978;2023-01-26T17:36:24;100316.56;;;1.59;100.00
59110;BME280;44895;47.438;18.978;2023-01-26T17:39:28;100311.66;;;1.56;100.00
59110;BME280;44895;47.438;18.978;2023-01-26T17:42:32;100318.44;;;1.58;100.00
59110;BME280;44895;47.438;18.978;2023-01-26T17:45:37;100312.38;;;1.51;100.00
59110;BME280;44895;47.438;18.978;2023-01-26T17:48:41;100307.78;;;1.40;100.00
59110;BME280;44895;47.438;18.978;2023-01-26T17:51:46;100319.78;;;1.49;100.00
59110;BME280;44895;47.438;18.978;2023-01-26T17:54:50;100319.91;;;1.42;100.00